Time;durP1;ratioP1;P1;durP2;ratioP2;P2;SDS_P1;SDS_P2;PMS_P1;PMS_P2;Temp;Humidity;BMP_temperature;BMP_pressure;BME280_temperature;BME280_humidity;BME280_pressure;Samples;Min_cycle;Max_cycle;Signal;HPM_P1;HPM_P2
2023/12/22 00:00:19;;;;;;;0.90;0.15;;;5.80;99.90;;;;;;5055582;28;20024;-63
2023/12/22 00:02:45;;;;;;;0.82;0.10;;;5.90;99.90;;;;;;5056817;28;20029;-63
2023/12/22 00:05:11;;;;;;;0.90;0.05;;;5.90;99.90;;;;;;5056847;28;20025;-63
2023/12/22 00:07:36;;;;;;;0.75;0.13;;;5.90;99.90;;;;;;5055495;28;20358;-63
2023/12/22 00:10:02;;;;;;;0.20;0.00;;;6.10;99.90;;;;;;5055543;28;20025;-63
2023/12/22 00:12:28;;;;;;;0.60;0.05;;;6.20;99.90;;;;;;5056593;28;20051;-63
2023/12/22 00:14:54;;;;;;;0.10;0.10;;;6.30;99.90;;;;;;5056663;28;20075;-63
2023/12/22 00:17:19;;;;;;;0.70;0.10;;;6.30;99.90;;;;;;5056595;28;20029;-63
2023/12/22 00:19:45;;;;;;;1.27;0.10;;;6.20;99.90;;;;;;5056791;28;20021;-63
2023/12/22 00:22:10;;;;;;;2.50;0.20;;;6.20;99.90;;;;;;5055166;28;20078;-63
2023/12/22 00:24:36;;;;;;;0.52;0.05;;;6.20;99.90;;;;;;5056209;28;20025;-63
2023/12/22 00:27:03;;;;;;;0.85;0.00;;;6.20;99.90;;;;;;5055149;28;20021;-63
2023/12/22 00:29:28;;;;;;;2.72;0.10;;;6.30;99.90;;;;;;5055118;28;20028;-63
2023/12/22 00:31:55;;;;;;;1.95;0.10;;;6.30;99.90;;;;;;5056288;28;20380;-63
2023/12/22 00:34:22;;;;;;;4.05;0.40;;;6.30;99.90;;;;;;5056210;28;20033;-63
2023/12/22 00:36:47;;;;;;;1.55;0.00;;;6.30;99.90;;;;;;5056674;28;20065;-64
2023/12/22 00:39:13;;;;;;;1.20;0.15;;;6.20;99.90;;;;;;5055194;28;20106;-64
2023/12/22 00:41:39;;;;;;;0.38;0.10;;;6.20;99.90;;;;;;5056361;28;20137;-64
2023/12/22 00:44:04;;;;;;;0.43;0.15;;;6.20;99.90;;;;;;5054827;28;20469;-64
2023/12/22 00:46:30;;;;;;;0.10;0.00;;;6.20;99.90;;;;;;5056024;28;20025;-65
2023/12/22 00:48:56;;;;;;;0.38;0.15;;;6.20;99.90;;;;;;5055965;28;20427;-63
2023/12/22 00:51:21;;;;;;;1.95;0.10;;;6.20;99.90;;;;;;5055685;28;20021;-64
2023/12/22 00:53:47;;;;;;;1.00;0.10;;;6.20;99.90;;;;;;5055682;28;20037;-63
2023/12/22 00:56:13;;;;;;;3.08;0.40;;;6.10;99.90;;;;;;5054719;28;20025;-63
2023/12/22 00:58:39;;;;;;;0.82;0.10;;;6.10;99.90;;;;;;5055551;28;20074;-63
2023/12/22 01:01:05;;;;;;;1.38;0.10;;;6.10;99.90;;;;;;5055748;28;20024;-63
2023/12/22 01:03:31;;;;;;;0.10;0.00;;;6.10;99.90;;;;;;5054446;28;20446;-63
2023/12/22 01:05:56;;;;;;;1.02;0.10;;;6.10;99.90;;;;;;5055909;28;20024;-63
2023/12/22 01:08:22;;;;;;;3.15;0.25;;;6.10;99.90;;;;;;5055112;28;20033;-63
2023/12/22 01:10:48;;;;;;;0.75;0.17;;;6.20;99.90;;;;;;5054307;28;20077;-64
2023/12/22 01:13:14;;;;;;;0.10;0.10;;;6.20;99.90;;;;;;5055491;28;20037;-64
2023/12/22 01:15:39;;;;;;;0.80;0.25;;;6.10;99.90;;;;;;5055660;28;20025;-64
2023/12/22 01:18:05;;;;;;;0.80;0.32;;;6.20;99.90;;;;;;5055186;28;20043;-63
2023/12/22 01:20:31;;;;;;;1.40;0.10;;;6.20;99.90;;;;;;5055383;28;20082;-63
2023/12/22 01:22:56;;;;;;;0.80;0.45;;;6.20;99.90;;;;;;5055311;28;20376;-63
2023/12/22 01:25:23;;;;;;;0.65;0.10;;;6.20;99.90;;;;;;5054994;28;20029;-63
2023/12/22 01:27:52;;;;;;;0.80;0.10;;;6.20;99.90;;;;;;5055268;28;20017;-63
2023/12/22 01:30:17;;;;;;;1.48;0.03;;;6.20;99.90;;;;;;5055488;28;20017;-63
2023/12/22 01:32:43;;;;;;;0.38;0.00;;;6.20;99.90;;;;;;5055136;28;20099;-63
2023/12/22 01:35:09;;;;;;;2.55;0.50;;;6.30;99.90;;;;;;5054844;28;20060;-63
2023/12/22 01:37:36;;;;;;;0.63;0.08;;;6.20;99.90;;;;;;5055079;28;20017;-63
2023/12/22 01:40:02;;;;;;;0.10;0.00;;;6.30;99.90;;;;;;5053796;28;20029;-63
2023/12/22 01:42:28;;;;;;;1.58;0.00;;;6.40;99.90;;;;;;5054910;28;20094;-63
2023/12/22 01:44:53;;;;;;;3.13;0.22;;;6.50;99.90;;;;;;5055214;28;20436;-63
2023/12/22 01:47:19;;;;;;;1.92;0.35;;;6.50;99.90;;;;;;5055297;28;20484;-63
2023/12/22 01:49:45;;;;;;;0.85;0.10;;;6.50;99.90;;;;;;5054095;28;20032;-63
2023/12/22 01:52:11;;;;;;;0.80;0.10;;;6.50;99.90;;;;;;5054978;28;20071;-63
2023/12/22 01:54:37;;;;;;;1.85;0.10;;;6.50;99.90;;;;;;5054447;28;20147;-63
2023/12/22 01:57:03;;;;;;;1.25;0.10;;;6.50;99.90;;;;;;5054937;28;20031;-63
2023/12/22 01:59:30;;;;;;;0.60;0.00;;;6.50;99.90;;;;;;5055014;28;20067;-63
2023/12/22 02:01:56;;;;;;;2.65;0.13;;;6.40;99.90;;;;;;5053763;28;20029;-63
2023/12/22 02:04:23;;;;;;;0.00;0.00;;;6.40;99.90;;;;;;5054726;28;20033;-63
2023/12/22 02:06:49;;;;;;;0.22;0.08;;;6.30;99.90;;;;;;5054551;28;20023;-63
2023/12/22 02:09:14;;;;;;;0.32;0.10;;;6.30;99.90;;;;;;5054520;28;20467;-63
2023/12/22 02:11:40;;;;;;;0.38;0.10;;;6.30;99.90;;;;;;5054704;28;20029;-63
2023/12/22 02:14:06;;;;;;;1.52;0.00;;;6.30;99.90;;;;;;5054618;28;20067;-63
2023/12/22 02:16:50;;;;;;;1.40;0.90;;;6.30;99.90;;;;;;5054085;28;20029;-63
2023/12/22 02:19:43;;;;;;;0.95;0.00;;;6.30;99.90;;;;;;5052815;28;20075;-63
2023/12/22 02:22:11;;;;;;;1.08;0.10;;;6.30;99.90;;;;;;5050735;28;20489;-63
2023/12/22 02:24:37;;;;;;;2.20;0.20;;;6.30;99.90;;;;;;5053137;28;20078;-63
2023/12/22 02:27:25;;;;;;;1.63;0.10;;;6.30;99.90;;;;;;5053979;28;20134;-63
2023/12/22 02:30:09;;;;;;;5.40;0.30;;;6.40;99.90;;;;;;5054629;28;20029;-63
2023/12/22 02:32:38;;;;;;;4.10;0.08;;;6.40;99.90;;;;;;5054133;28;20453;-63
2023/12/22 02:35:09;;;;;;;0.63;0.00;;;6.40;99.90;;;;;;5054534;28;20030;-63
2023/12/22 02:37:36;;;;;;;4.80;0.88;;;6.30;99.90;;;;;;5054389;28;20100;-63
2023/12/22 02:40:02;;;;;;;5.45;0.13;;;6.30;99.90;;;;;;5053867;28;20025;-63
2023/12/22 02:42:30;;;;;;;1.38;0.20;;;6.20;99.90;;;;;;5054131;28;20021;-63
2023/12/22 02:44:59;;;;;;;1.85;0.52;;;6.10;99.90;;;;;;5052340;28;20037;-63
2023/12/22 02:47:27;;;;;;;;;;;6.00;99.90;;;;;;5054517;28;20032;-63
2023/12/22 02:49:53;;;;;;;1.87;0.20;;;5.90;99.90;;;;;;5053915;28;20003;-63
2023/12/22 02:52:19;;;;;;;3.72;0.70;;;5.90;99.90;;;;;;5053648;28;20437;-63
2023/12/22 02:54:44;;;;;;;3.10;0.20;;;5.90;99.90;;;;;;5052513;28;20033;-63
2023/12/22 02:57:10;;;;;;;1.52;0.10;;;5.90;99.90;;;;;;5052542;28;20055;-62
2023/12/22 02:59:36;;;;;;;5.13;0.30;;;5.90;99.90;;;;;;5052461;28;20388;-63
2023/12/22 03:02:02;;;;;;;0.75;0.20;;;5.90;99.90;;;;;;5054218;28;20064;-63
2023/12/22 03:04:28;;;;;;;3.85;0.10;;;5.90;99.90;;;;;;5052448;28;20473;-63
2023/12/22 03:06:53;;;;;;;2.30;0.20;;;5.90;99.90;;;;;;5053371;28;20147;-63
2023/12/22 03:09:19;;;;;;;0.73;0.20;;;5.80;99.90;;;;;;5052393;28;20167;-63
2023/12/22 03:11:44;;;;;;;2.28;0.15;;;5.70;99.90;;;;;;5053653;28;20111;-63
2023/12/22 03:14:10;;;;;;;1.77;0.10;;;5.70;99.90;;;;;;5053502;28;20025;-63
2023/12/22 03:16:36;;;;;;;3.42;0.20;;;5.60;99.90;;;;;;5052301;28;20028;-63
2023/12/22 03:19:01;;;;;;;2.45;0.32;;;5.60;99.90;;;;;;5053814;28;20033;-63
2023/12/22 03:21:27;;;;;;;3.28;0.20;;;5.50;99.90;;;;;;5053506;28;20025;-62
2023/12/22 03:23:53;;;;;;;1.70;0.40;;;5.50;99.90;;;;;;5053497;28;20108;-63
2023/12/22 03:26:18;;;;;;;1.90;0.28;;;5.50;99.90;;;;;;5053446;28;20029;-63
2023/12/22 03:28:44;;;;;;;3.53;0.60;;;5.50;99.90;;;;;;5053458;28;20068;-63
2023/12/22 03:31:09;;;;;;;1.70;0.13;;;5.50;99.90;;;;;;5056780;28;20488;-63
2023/12/22 03:33:35;;;;;;;0.85;0.10;;;5.40;99.90;;;;;;5056129;28;20036;-63
2023/12/22 03:36:01;;;;;;;4.63;0.45;;;5.40;99.90;;;;;;5057430;28;20029;-63
2023/12/22 03:38:26;;;;;;;1.98;0.20;;;5.40;99.90;;;;;;5056022;28;20049;-62
2023/12/22 03:40:52;;;;;;;1.95;0.10;;;5.40;99.90;;;;;;5057251;28;20033;-63
2023/12/22 03:43:17;;;;;;;2.90;0.10;;;5.40;99.90;;;;;;5057300;28;20029;-63
2023/12/22 03:45:43;;;;;;;1.25;0.15;;;5.50;99.90;;;;;;5057337;28;20051;-63
2023/12/22 03:48:09;;;;;;;2.83;0.22;;;5.50;99.90;;;;;;5056851;28;20057;-63
2023/12/22 03:50:34;;;;;;;1.38;0.13;;;5.40;99.90;;;;;;5057028;28;20025;-62
2023/12/22 03:53:00;;;;;;;0.88;0.20;;;5.50;99.90;;;;;;5056536;28;20403;-63
2023/12/22 03:55:25;;;;;;;1.55;0.20;;;5.50;99.90;;;;;;5057049;28;20025;-63
2023/12/22 03:57:51;;;;;;;4.47;0.35;;;5.40;99.90;;;;;;5056974;28;20103;-63
2023/12/22 04:00:17;;;;;;;4.00;0.28;;;5.40;99.90;;;;;;5057002;28;20469;-63
2023/12/22 04:02:42;;;;;;;2.05;0.30;;;5.50;99.90;;;;;;5057322;28;20027;-63
2023/12/22 04:05:11;;;;;;;4.38;0.25;;;5.50;99.90;;;;;;5055728;28;20051;-63
2023/12/22 04:07:37;;;;;;;4.13;0.20;;;5.50;99.90;;;;;;5056809;28;20079;-63
2023/12/22 04:10:03;;;;;;;3.88;0.20;;;5.40;99.90;;;;;;5055809;28;20025;-63
2023/12/22 04:12:28;;;;;;;3.08;0.20;;;5.40;99.90;;;;;;5056863;28;20028;-63
2023/12/22 04:14:54;;;;;;;4.32;0.30;;;5.40;99.90;;;;;;5056973;28;20381;-63
2023/12/22 04:17:20;;;;;;;0.45;0.03;;;5.40;99.90;;;;;;5056853;28;20032;-62
2023/12/22 04:19:45;;;;;;;0.98;0.10;;;5.40;99.90;;;;;;5056896;28;20088;-62
2023/12/22 04:22:11;;;;;;;1.30;0.00;;;5.40;99.90;;;;;;5056935;28;20517;-63
2023/12/22 04:24:36;;;;;;;3.88;0.10;;;5.40;99.90;;;;;;5056418;28;20381;-63
2023/12/22 04:27:02;;;;;;;1.10;0.17;;;5.40;99.90;;;;;;5056893;28;20163;-62
2023/12/22 04:29:28;;;;;;;2.03;0.17;;;5.40;99.90;;;;;;5054885;28;20078;-62
2023/12/22 04:31:53;;;;;;;1.00;0.30;;;5.40;99.90;;;;;;5056466;28;20029;-63
2023/12/22 04:34:19;;;;;;;1.73;0.32;;;5.50;99.90;;;;;;5054960;28;20465;-63
2023/12/22 04:36:46;;;;;;;1.58;0.20;;;5.50;99.90;;;;;;5056200;28;20039;-62
2023/12/22 04:39:12;;;;;;;0.40;0.30;;;5.60;99.90;;;;;;5054926;28;20113;-63
2023/12/22 04:41:38;;;;;;;2.15;0.30;;;5.60;99.90;;;;;;5055560;28;20021;-62
2023/12/22 04:44:04;;;;;;;5.05;1.38;;;5.60;99.90;;;;;;5054478;28;20029;-62
2023/12/22 04:46:30;;;;;;;3.67;0.52;;;5.60;99.90;;;;;;5054468;28;20124;-62
2023/12/22 04:48:56;;;;;;;1.77;0.30;;;5.70;99.90;;;;;;5056038;28;20029;-63
2023/12/22 04:51:21;;;;;;;3.15;0.20;;;5.70;99.90;;;;;;5055966;28;20032;-62
2023/12/22 04:53:47;;;;;;;1.75;0.10;;;5.70;99.90;;;;;;5056098;28;20037;-63
2023/12/22 04:56:14;;;;;;;3.28;0.32;;;5.70;99.90;;;;;;5055905;28;20025;-63
2023/12/22 04:58:39;;;;;;;3.33;0.30;;;5.80;99.90;;;;;;5055774;28;20032;-62
2023/12/22 05:01:05;;;;;;;4.20;0.43;;;5.80;99.90;;;;;;5054479;28;20025;-63
2023/12/22 05:03:30;;;;;;;6.45;0.60;;;5.80;99.90;;;;;;5055968;28;20029;-62
2023/12/22 05:05:56;;;;;;;4.25;0.38;;;5.80;99.90;;;;;;5055980;28;20021;-63
2023/12/22 05:08:22;;;;;;;3.83;0.43;;;5.80;99.90;;;;;;5054508;28;20025;-63
2023/12/22 05:10:47;;;;;;;2.13;0.55;;;5.80;99.90;;;;;;5055584;28;20025;-62
2023/12/22 05:13:13;;;;;;;2.47;0.57;;;5.80;99.90;;;;;;5054741;28;20037;-62
2023/12/22 05:15:38;;;;;;;0.63;0.15;;;5.80;99.90;;;;;;5055495;28;20427;-63
2023/12/22 05:18:04;;;;;;;2.35;0.45;;;5.90;99.90;;;;;;5055616;28;20033;-62
2023/12/22 05:20:30;;;;;;;1.95;0.45;;;5.80;99.90;;;;;;5055443;28;20057;-62
2023/12/22 05:22:56;;;;;;;1.70;0.30;;;5.80;99.90;;;;;;5055379;28;20036;-62
2023/12/22 05:25:22;;;;;;;3.42;0.75;;;5.80;99.90;;;;;;5054106;28;20112;-62
2023/12/22 05:27:48;;;;;;;3.55;0.50;;;5.80;99.90;;;;;;5055610;28;20063;-62
2023/12/22 05:30:13;;;;;;;5.30;0.40;;;5.80;99.90;;;;;;5055313;28;20029;-62
2023/12/22 05:32:39;;;;;;;6.63;0.52;;;5.80;99.90;;;;;;5055170;28;20029;-62
2023/12/22 05:35:05;;;;;;;8.70;1.48;;;5.80;99.90;;;;;;5054840;28;20040;-62
2023/12/22 05:37:31;;;;;;;2.28;0.60;;;5.80;99.90;;;;;;5055384;28;20025;-62
2023/12/22 05:39:56;;;;;;;2.33;0.35;;;5.80;99.90;;;;;;5055112;28;20483;-62
2023/12/22 05:42:22;;;;;;;7.25;0.88;;;5.70;99.90;;;;;;5053771;28;20025;-62
2023/12/22 05:44:49;;;;;;;7.35;0.50;;;5.70;99.90;;;;;;5055229;28;20040;-62
2023/12/22 05:47:16;;;;;;;12.10;1.30;;;5.60;99.90;;;;;;5053645;28;20070;-62
2023/12/22 05:49:42;;;;;;;5.57;0.60;;;5.60;99.90;;;;;;5054973;28;20074;-62
2023/12/22 05:52:09;;;;;;;8.45;0.60;;;5.50;99.90;;;;;;5055143;28;20495;-62
2023/12/22 05:54:35;;;;;;;6.22;0.82;;;5.40;99.90;;;;;;5053785;28;20052;-62
2023/12/22 05:57:01;;;;;;;7.18;0.70;;;5.40;99.90;;;;;;5054919;28;20021;-62
2023/12/22 05:59:32;;;;;;;1.10;0.30;;;5.30;99.90;;;;;;5054802;28;20090;-62
2023/12/22 06:01:58;;;;;;;4.20;0.40;;;5.30;99.90;;;;;;5054614;28;20025;-62
2023/12/22 06:04:24;;;;;;;1.60;0.25;;;5.20;99.90;;;;;;5054734;28;20113;-62
2023/12/22 06:06:50;;;;;;;5.28;0.50;;;5.20;99.90;;;;;;5054480;28;20025;-62
2023/12/22 06:09:17;;;;;;;1.90;0.40;;;5.20;99.90;;;;;;5053212;28;20037;-62
2023/12/22 06:11:42;;;;;;;5.35;0.60;;;5.20;99.90;;;;;;5054740;28;20457;-63
2023/12/22 06:14:08;;;;;;;3.30;1.15;;;5.10;99.90;;;;;;5052845;28;20040;-63
2023/12/22 06:16:34;;;;;;;1.65;0.30;;;5.10;99.90;;;;;;5054410;28;20457;-62
2023/12/22 06:18:59;;;;;;;2.75;0.77;;;5.00;99.90;;;;;;5054336;28;20017;-62
2023/12/22 06:21:25;;;;;;;3.03;0.52;;;5.00;99.90;;;;;;5054162;28;20065;-64
2023/12/22 06:23:50;;;;;;;5.00;0.28;;;4.90;99.90;;;;;;5054855;28;20358;-63
2023/12/22 06:26:16;;;;;;;0.90;0.30;;;4.90;99.90;;;;;;5054630;28;20025;-65
2023/12/22 06:28:42;;;;;;;2.75;0.40;;;4.90;99.90;;;;;;5054867;28;20425;-63
2023/12/22 06:31:18;;;;;;;5.10;0.50;;;4.80;99.90;;;;;;5055387;28;20025;-63
2023/12/22 06:33:43;;;;;;;1.83;0.25;;;4.80;99.90;;;;;;5056490;28;20453;-64
2023/12/22 06:36:24;;;;;;;2.85;0.30;;;4.80;99.90;;;;;;5054538;28;20025;-64
2023/12/22 06:38:51;;;;;;;3.22;0.38;;;4.70;99.90;;;;;;5054468;28;20078;-63
2023/12/22 06:41:22;;;;;;;2.95;0.20;;;4.70;99.90;;;;;;5054798;28;20492;-63
2023/12/22 06:43:49;;;;;;;2.17;0.25;;;4.70;99.90;;;;;;5053070;28;20033;-63
2023/12/22 06:46:18;;;;;;;2.45;0.35;;;4.70;99.90;;;;;;5053320;28;20091;-63
2023/12/22 06:48:45;;;;;;;0.98;0.20;;;4.70;99.90;;;;;;5054154;28;20522;-63
2023/12/22 06:51:19;;;;;;;2.05;0.32;;;4.70;99.90;;;;;;5054013;28;20025;-63
2023/12/22 06:53:45;;;;;;;3.00;0.73;;;4.60;99.90;;;;;;5053902;28;20123;-63
2023/12/22 06:56:17;;;;;;;1.48;0.40;;;4.70;99.90;;;;;;5053668;28;20021;-64
2023/12/22 06:58:43;;;;;;;3.08;0.45;;;4.70;99.90;;;;;;5052607;28;20465;-63
2023/12/22 07:01:09;;;;;;;3.47;0.47;;;4.70;99.90;;;;;;5053689;28;20025;-63
2023/12/22 07:03:36;;;;;;;1.67;0.52;;;4.80;99.90;;;;;;5053517;28;20033;-63
2023/12/22 07:06:02;;;;;;;1.15;0.47;;;4.70;99.90;;;;;;5053240;28;20021;-62
2023/12/22 07:08:28;;;;;;;2.40;0.38;;;4.70;99.90;;;;;;5053606;28;20021;-63
2023/12/22 07:10:54;;;;;;;2.92;0.80;;;4.70;99.90;;;;;;5053650;28;20087;-63
2023/12/22 07:13:19;;;;;;;4.03;0.82;;;4.70;99.90;;;;;;5052283;28;20067;-63
2023/12/22 07:15:45;;;;;;;0.70;0.50;;;4.70;99.90;;;;;;5053893;28;20072;-63
2023/12/22 07:18:10;;;;;;;1.48;0.25;;;4.70;99.90;;;;;;5053999;28;20432;-63
2023/12/22 07:20:36;;;;;;;2.58;0.38;;;4.70;99.90;;;;;;5052413;28;20032;-63
2023/12/22 07:23:01;;;;;;;1.48;0.20;;;4.70;99.90;;;;;;5052393;28;20029;-64
2023/12/22 07:25:27;;;;;;;3.08;0.50;;;4.70;99.90;;;;;;5053552;28;20021;-63
2023/12/22 07:27:53;;;;;;;7.70;0.50;;;4.80;99.90;;;;;;5053714;28;20025;-74
2023/12/22 07:30:18;;;;;;;2.08;0.30;;;4.80;99.90;;;;;;5056794;28;20465;-74
2023/12/22 07:32:47;;;;;;;1.33;0.28;;;5.10;99.90;;;;;;5054438;28;20476;-64
2023/12/22 07:35:13;;;;;;;4.22;1.17;;;5.30;99.90;;;;;;5053450;28;20025;-63
2023/12/22 07:37:38;;;;;;;7.78;0.52;;;5.20;99.90;;;;;;5053716;28;20465;-63
2023/12/22 07:40:04;;;;;;;1.88;0.10;;;5.10;99.90;;;;;;5052205;28;20029;-63
2023/12/22 07:42:30;;;;;;;0.85;0.32;;;5.00;99.90;;;;;;5053063;28;20030;-63
2023/12/22 07:44:55;;;;;;;1.67;0.22;;;5.00;99.90;;;;;;5053428;28;20079;-63
2023/12/22 07:47:21;;;;;;;0.75;0.28;;;5.00;99.90;;;;;;5053331;28;20079;-63
2023/12/22 07:49:49;;;;;;;3.83;0.45;;;5.00;99.90;;;;;;5053297;28;20021;-63
2023/12/22 07:52:15;;;;;;;1.65;0.17;;;5.00;99.90;;;;;;5052808;28;20049;-63
2023/12/22 07:54:40;;;;;;;0.70;0.22;;;5.00;99.90;;;;;;5053087;28;20082;-63
2023/12/22 07:57:06;;;;;;;0.75;0.30;;;5.00;99.90;;;;;;5053204;28;20026;-63
2023/12/22 07:59:32;;;;;;;0.93;0.22;;;5.00;99.90;;;;;;5053625;28;20025;-63
2023/12/22 08:01:57;;;;;;;0.57;0.00;;;5.00;99.90;;;;;;5053094;28;20021;-63
2023/12/22 08:04:23;;;;;;;2.05;0.25;;;5.00;99.90;;;;;;5053204;28;20469;-63
2023/12/22 08:06:49;;;;;;;1.40;0.30;;;5.00;99.90;;;;;;5053153;28;20029;-63
2023/12/22 08:09:14;;;;;;;0.82;0.10;;;5.10;99.90;;;;;;5051905;28;20397;-63
2023/12/22 08:11:40;;;;;;;0.85;0.15;;;5.10;99.90;;;;;;5053153;28;20032;-63
2023/12/22 08:14:06;;;;;;;1.40;0.28;;;5.10;99.90;;;;;;5052791;28;20163;-63
2023/12/22 08:16:32;;;;;;;4.40;0.50;;;5.10;99.90;;;;;;5053773;28;20065;-63
2023/12/22 08:18:58;;;;;;;0.88;0.40;;;5.10;99.90;;;;;;5056740;28;20039;-63
2023/12/22 08:21:23;;;;;;;3.28;0.20;;;5.10;99.90;;;;;;5056531;28;20025;-63
2023/12/22 08:23:49;;;;;;;2.58;0.50;;;5.10;99.90;;;;;;5056862;28;20028;-63
2023/12/22 08:26:17;;;;;;;1.92;0.30;;;5.10;99.90;;;;;;5056624;28;20056;-63
2023/12/22 08:28:42;;;;;;;1.83;0.30;;;5.10;99.90;;;;;;5056425;28;20028;-63
2023/12/22 08:31:08;;;;;;;0.30;0.17;;;5.10;99.90;;;;;;5056435;28;20029;-62
2023/12/22 08:33:34;;;;;;;2.70;0.22;;;5.20;99.90;;;;;;5056467;28;20033;-63
2023/12/22 08:35:59;;;;;;;3.72;0.17;;;5.20;99.90;;;;;;5055042;28;20134;-63
2023/12/22 08:38:26;;;;;;;0.52;0.10;;;5.30;99.90;;;;;;5056216;28;20033;-63
2023/12/22 08:40:53;;;;;;;2.55;0.15;;;5.40;99.90;;;;;;5056202;28;20025;-63
2023/12/22 08:43:19;;;;;;;0.75;0.25;;;5.50;99.90;;;;;;5056109;28;20085;-63
2023/12/22 08:45:45;;;;;;;1.40;0.20;;;5.80;99.90;;;;;;5056171;28;20033;-63
2023/12/22 08:48:10;;;;;;;2.63;0.50;;;6.10;99.90;;;;;;5056072;28;20021;-63
2023/12/22 08:50:36;;;;;;;1.63;0.40;;;6.10;99.90;;;;;;5055991;28;20476;-63
2023/12/22 08:53:02;;;;;;;1.45;1.00;;;6.00;99.90;;;;;;5055519;28;20055;-63
2023/12/22 08:55:27;;;;;;;1.85;0.30;;;5.80;99.90;;;;;;5054686;28;20035;-62
2023/12/22 08:57:53;;;;;;;2.83;0.90;;;6.50;99.90;;;;;;5055876;28;20032;-63
2023/12/22 09:00:19;;;;;;;7.03;0.40;;;7.30;99.90;;;;;;5056071;28;20025;-63
2023/12/22 09:02:44;;;;;;;1.67;0.25;;;7.70;99.90;;;;;;5055520;28;20032;-63
2023/12/22 09:05:10;;;;;;;1.33;0.40;;;8.30;99.90;;;;;;5055568;28;20021;-63
2023/12/22 09:07:36;;;;;;;0.93;0.10;;;8.60;99.90;;;;;;5055434;28;20024;-63
2023/12/22 09:10:03;;;;;;;3.17;0.25;;;8.70;99.90;;;;;;5055646;28;20055;-63
2023/12/22 09:12:29;;;;;;;1.05;0.25;;;9.00;99.90;;;;;;5055301;28;20461;-63
2023/12/22 09:14:54;;;;;;;2.10;0.20;;;9.60;99.80;;;;;;5055421;28;20044;-63
2023/12/22 09:17:20;;;;;;;2.05;0.98;;;9.50;99.20;;;;;;5055481;28;20078;-64
2023/12/22 09:19:45;;;;;;;0.68;0.20;;;9.50;99.20;;;;;;5055352;28;20538;-63
2023/12/22 09:22:12;;;;;;;2.25;0.20;;;9.30;99.20;;;;;;5054084;28;20028;-63
2023/12/22 09:24:38;;;;;;;0.93;0.13;;;9.20;99.00;;;;;;5055034;28;20075;-64
2023/12/22 09:27:04;;;;;;;1.17;0.40;;;8.70;99.60;;;;;;5055458;28;20112;-63
2023/12/22 09:29:31;;;;;;;1.17;0.60;;;8.40;99.90;;;;;;5055204;28;20105;-63
2023/12/22 09:31:58;;;;;;;3.92;0.25;;;7.90;99.90;;;;;;5054200;28;20033;-63
2023/12/22 09:34:27;;;;;;;0.77;0.15;;;7.50;99.90;;;;;;5055176;28;20033;-63
2023/12/22 09:36:52;;;;;;;5.72;0.25;;;7.30;99.90;;;;;;5054389;28;20029;-63
2023/12/22 09:39:18;;;;;;;3.63;0.35;;;7.40;99.90;;;;;;5055321;28;20365;-63
2023/12/22 09:41:48;;;;;;;2.05;0.35;;;7.30;99.90;;;;;;5055025;28;20052;-63
2023/12/22 09:44:27;;;;;;;1.13;0.30;;;6.90;99.90;;;;;;5054982;28;20044;-63
2023/12/22 09:46:53;;;;;;;0.68;0.13;;;6.60;99.90;;;;;;5055063;28;20021;-63
2023/12/22 09:49:20;;;;;;;0.35;0.22;;;6.50;99.90;;;;;;5054952;28;20033;-63
2023/12/22 09:51:46;;;;;;;0.73;0.20;;;6.30;99.90;;;;;;5054476;28;20551;-63
2023/12/22 09:54:13;;;;;;;2.17;0.20;;;6.20;99.90;;;;;;5053591;28;20033;-63
2023/12/22 09:56:42;;;;;;;0.77;0.10;;;6.10;99.90;;;;;;5054406;28;20109;-63
2023/12/22 09:59:14;;;;;;;0.85;0.20;;;6.10;99.90;;;;;;5054713;28;20021;-63
2023/12/22 10:01:44;;;;;;;3.03;0.10;;;6.00;99.90;;;;;;5054642;28;20030;-63
2023/12/22 10:04:09;;;;;;;3.10;0.40;;;6.00;99.90;;;;;;5054641;28;20353;-63
2023/12/22 10:06:36;;;;;;;2.20;0.22;;;5.90;99.90;;;;;;5053356;28;20035;-63
2023/12/22 10:09:05;;;;;;;0.77;0.20;;;5.90;99.90;;;;;;5053319;28;20025;-63
2023/12/22 10:11:32;;;;;;;1.90;0.57;;;5.80;99.90;;;;;;5054505;28;20025;-63
2023/12/22 10:14:00;;;;;;;1.98;0.28;;;5.80;99.90;;;;;;5053341;28;20380;-63
2023/12/22 10:16:25;;;;;;;3.03;0.20;;;5.90;99.90;;;;;;5053076;28;20024;-66
2023/12/22 10:18:52;;;;;;;1.00;0.10;;;5.90;99.90;;;;;;5054096;28;20021;-63
2023/12/22 10:21:17;;;;;;;1.52;0.63;;;5.90;99.90;;;;;;5053771;28;20338;-63
2023/12/22 10:23:43;;;;;;;8.80;0.73;;;5.90;99.90;;;;;;5054526;28;20040;-63
2023/12/22 10:26:11;;;;;;;0.47;0.10;;;6.00;99.90;;;;;;5054221;28;20044;-63
2023/12/22 10:28:37;;;;;;;0.70;0.10;;;6.00;99.90;;;;;;5054222;28;20082;-63
2023/12/22 10:31:06;;;;;;;0.88;0.20;;;6.10;99.90;;;;;;5054254;28;20032;-63
2023/12/22 10:33:32;;;;;;;0.85;0.20;;;6.30;99.90;;;;;;5054058;28;20058;-63
2023/12/22 10:36:01;;;;;;;3.25;0.35;;;6.70;99.90;;;;;;5054227;28;20025;-63
2023/12/22 10:38:36;;;;;;;1.08;0.10;;;7.30;99.90;;;;;;5054358;28;20044;-63
2023/12/22 10:41:02;;;;;;;2.28;0.20;;;7.50;99.90;;;;;;5053246;28;20032;-63
2023/12/22 10:43:28;;;;;;;2.63;0.60;;;7.70;99.90;;;;;;5053935;28;20029;-63
2023/12/22 10:45:55;;;;;;;4.88;0.30;;;7.60;99.90;;;;;;5053655;28;20017;-63
2023/12/22 10:48:21;;;;;;;0.98;0.43;;;7.30;99.90;;;;;;5052848;28;20053;-63
2023/12/22 10:50:48;;;;;;;1.58;0.30;;;7.20;99.90;;;;;;5052638;28;20434;-63
2023/12/22 10:53:14;;;;;;;3.72;0.40;;;7.50;99.90;;;;;;5053971;28;20134;-63
2023/12/22 10:55:39;;;;;;;1.75;0.30;;;7.60;99.90;;;;;;5052563;28;20029;-63
2023/12/22 10:58:06;;;;;;;0.77;0.20;;;8.20;99.90;;;;;;5053851;28;20036;-63
2023/12/22 11:00:40;;;;;;;4.78;0.47;;;8.50;99.90;;;;;;5053506;28;20518;-64
2023/12/22 11:03:10;;;;;;;0.73;0.10;;;8.50;99.90;;;;;;5053877;28;20033;-63
2023/12/22 11:05:39;;;;;;;1.05;0.15;;;9.10;99.90;;;;;;5052885;28;20033;-63
2023/12/22 11:08:08;;;;;;;1.77;0.25;;;9.60;99.60;;;;;;5053708;28;20029;-63
2023/12/22 11:10:35;;;;;;;;;;;8.90;99.50;;;;;;5054156;28;20033;-63
2023/12/22 11:13:02;;;;;;;4.88;0.40;;;8.10;99.90;;;;;;5054172;28;19916;-63
2023/12/22 11:15:29;;;;;;;3.03;0.25;;;7.70;99.90;;;;;;5053652;28;20029;-63
2023/12/22 11:17:57;;;;;;;4.68;0.40;;;7.40;99.90;;;;;;5053619;28;20025;-63
2023/12/22 11:20:25;;;;;;;0.70;0.23;;;7.10;99.90;;;;;;5053621;28;20029;-63
2023/12/22 11:22:52;;;;;;;1.15;0.38;;;6.80;99.90;;;;;;5053625;28;20037;-63
2023/12/22 11:25:19;;;;;;;0.22;0.05;;;6.70;99.90;;;;;;5052084;28;20033;-63
2023/12/22 11:27:48;;;;;;;0.30;0.10;;;6.50;99.90;;;;;;5052275;28;20124;-63
2023/12/22 11:30:14;;;;;;;0.40;0.00;;;6.50;99.90;;;;;;5053545;28;20086;-63
2023/12/22 11:32:41;;;;;;;0.08;0.00;;;6.30;99.90;;;;;;5053464;28;20437;-63
2023/12/22 11:35:10;;;;;;;3.50;0.10;;;6.20;99.90;;;;;;5053707;28;20029;-63
2023/12/22 11:37:38;;;;;;;2.50;0.10;;;5.80;99.90;;;;;;5052590;28;20032;-63
2023/12/22 11:40:04;;;;;;;0.22;0.00;;;5.00;99.90;;;;;;5053522;28;20021;-63
2023/12/22 11:42:36;;;;;;;0.95;0.10;;;4.70;99.90;;;;;;5053392;28;20068;-63
2023/12/22 11:45:02;;;;;;;0.47;0.10;;;4.70;99.90;;;;;;5053718;28;20036;-63
2023/12/22 11:47:29;;;;;;;0.52;0.30;;;4.80;99.90;;;;;;5053757;28;20033;-63
2023/12/22 11:49:55;;;;;;;1.33;0.00;;;5.80;99.90;;;;;;5053096;28;20048;-63
2023/12/22 11:52:30;;;;;;;0.80;0.00;;;5.90;99.90;;;;;;5054868;28;20045;-63
2023/12/22 11:54:56;;;;;;;1.65;0.10;;;6.80;99.90;;;;;;5055792;28;20460;-63
2023/12/22 11:57:28;;;;;;;1.83;0.10;;;6.90;99.90;;;;;;5055863;28;20021;-65
2023/12/22 12:00:11;;;;;;;0.88;0.10;;;6.70;99.90;;;;;;5057158;28;20021;-64
2023/12/22 12:02:39;;;;;;;0.85;0.10;;;6.90;99.90;;;;;;5056323;28;20115;-64
2023/12/22 12:05:07;;;;;;;0.95;0.20;;;6.80;99.90;;;;;;5057461;28;20112;-64
2023/12/22 12:07:44;;;;;;;1.27;0.20;;;6.60;99.90;;;;;;5057644;28;20071;-64
2023/12/22 12:10:33;;;;;;;1.42;0.20;;;6.30;99.90;;;;;;5056180;28;20527;-64
2023/12/22 12:13:13;;;;;;;;;;;6.30;99.90;;;;;;5057234;28;20095;-64
2023/12/22 12:15:39;;;;;;;1.65;0.15;;;6.60;99.90;;;;;;5057193;28;19959;-63
2023/12/22 12:18:05;;;;;;;0.08;0.03;;;6.60;99.90;;;;;;5055440;28;20033;-64
2023/12/22 12:20:32;;;;;;;2.83;0.20;;;6.40;99.90;;;;;;5055559;28;20037;-63
2023/12/22 12:22:59;;;;;;;0.52;0.10;;;6.20;99.90;;;;;;5055798;28;20060;-63
2023/12/22 12:25:28;;;;;;;0.57;0.20;;;6.20;99.90;;;;;;5056199;28;20461;-63
2023/12/22 12:28:03;;;;;;;1.55;0.32;;;6.20;99.90;;;;;;5056452;28;20068;-63
2023/12/22 12:30:31;;;;;;;1.00;0.10;;;6.20;99.90;;;;;;5056167;28;20542;-63
2023/12/22 12:33:02;;;;;;;0.35;0.17;;;6.20;99.90;;;;;;5056548;28;20068;-62
2023/12/22 12:35:29;;;;;;;1.42;0.20;;;6.20;99.90;;;;;;5056377;28;20160;-63
2023/12/22 12:37:55;;;;;;;1.55;0.20;;;6.20;99.90;;;;;;5056294;28;20067;-63
2023/12/22 12:40:23;;;;;;;1.67;0.20;;;6.20;99.90;;;;;;5055017;28;20033;-62
2023/12/22 12:42:50;;;;;;;1.27;0.20;;;6.30;99.90;;;;;;5055142;28;20373;-62
2023/12/22 12:45:21;;;;;;;1.23;0.20;;;6.20;99.90;;;;;;5054868;28;20032;-62
2023/12/22 12:47:56;;;;;;;1.50;0.13;;;6.20;99.90;;;;;;5055950;28;20017;-62
2023/12/22 12:50:23;;;;;;;1.75;0.20;;;6.20;99.90;;;;;;5054913;28;20123;-62
2023/12/22 12:52:49;;;;;;;2.00;0.40;;;6.10;99.90;;;;;;5054454;28;20053;-62
2023/12/22 12:55:18;;;;;;;1.02;0.20;;;6.20;99.90;;;;;;5055920;28;20503;-62